Time;durP1;ratioP1;P1;durP2;ratioP2;P2;SDS_P1;SDS_P2;PMS_P1;PMS_P2;Temp;Humidity;BMP_temperature;BMP_pressure;BME280_temperature;BME280_humidity;BME280_pressure;Samples;Min_cycle;Max_cycle;Signal;HPM_P1;HPM_P2
2023/01/01 00:01:14;;;;;;;257.50;159.27;;;;;;;8.90;55.63;102598.66;5013711;28;20372;-74
2023/01/01 00:03:40;;;;;;;269.60;163.90;;;;;;;8.80;55.68;102594.97;5012534;28;20388;-73
2023/01/01 00:06:11;;;;;;;222.30;137.20;;;;;;;8.65;55.83;102604.88;5012816;28;20383;-73
2023/01/01 00:08:37;;;;;;;190.88;119.70;;;;;;;8.70;56.40;102615.97;5013125;28;20391;-73
2023/01/01 00:11:04;;;;;;;244.88;155.90;;;;;;;8.69;55.68;102624.84;5013454;28;20364;-74
2023/01/01 00:13:29;;;;;;;252.43;156.23;;;;;;;8.42;56.27;102622.38;5012170;28;20467;-74
2023/01/01 00:15:55;;;;;;;251.30;160.10;;;;;;;8.14;56.90;102619.03;5013087;28;20503;-74
2023/01/01 00:18:20;;;;;;;249.33;154.17;;;;;;;8.11;57.09;102627.16;5013272;28;20376;-74
2023/01/01 00:20:46;;;;;;;272.10;162.03;;;;;;;8.13;57.17;102622.59;5013296;28;20419;-74
2023/01/01 00:23:11;;;;;;;252.23;158.38;;;;;;;8.13;56.85;102622.59;5012274;28;20379;-73
2023/01/01 00:25:39;;;;;;;216.37;130.93;;;;;;;7.81;57.27;102632.75;5013213;28;20451;-74
2023/01/01 00:28:04;;;;;;;218.75;136.73;;;;;;;7.66;58.13;102638.09;5013502;28;20471;-73
2023/01/01 00:30:30;;;;;;;218.73;133.57;;;;;;;7.57;58.28;102656.38;5017557;28;20888;-73
2023/01/01 00:32:55;;;;;;;219.73;139.05;;;;;;;7.37;58.78;102647.97;5013902;28;20408;-74
2023/01/01 00:35:21;;;;;;;212.53;132.27;;;;;;;7.21;59.08;102652.56;5012612;28;20386;-73
2023/01/01 00:37:47;;;;;;;176.88;113.18;;;;;;;7.19;59.13;102641.28;5012461;28;20439;-74
2023/01/01 00:40:12;;;;;;;154.13;98.50;;;;;;;7.20;58.95;102651.72;5012953;28;20380;-75
2023/01/01 00:42:40;;;;;;;161.30;102.17;;;;;;;7.14;58.88;102644.19;5012867;28;20784;-74
2023/01/01 00:45:06;;;;;;;137.82;88.15;;;;;;;7.16;59.07;102639.66;5013209;28;20752;-73
2023/01/01 00:47:32;;;;;;;136.18;88.22;;;;;;;7.15;59.18;102645.03;5015942;28;20434;-73
2023/01/01 00:49:57;;;;;;;102.33;66.10;;;;;;;7.18;58.94;102658.03;5015125;28;20453;-74
2023/01/01 00:52:22;;;;;;;102.67;66.70;;;;;;;7.08;58.89;102656.00;5012673;28;20384;-73
2023/01/01 00:54:48;;;;;;;137.53;89.77;;;;;;;7.07;59.04;102650.81;5012752;28;20729;-73
2023/01/01 00:57:13;;;;;;;153.63;93.57;;;;;;;6.95;59.26;102656.88;5012186;28;20473;-73
2023/01/01 00:59:39;;;;;;;101.10;67.93;;;;;;;6.95;59.11;102670.94;5012512;28;20372;-74
2023/01/01 01:02:04;;;;;;;89.47;58.67;;;;;;;6.99;58.78;102666.31;5012542;28;20383;-74
2023/01/01 01:04:30;;;;;;;97.30;64.10;;;;;;;7.03;58.59;102673.91;5012337;28;20374;-73
2023/01/01 01:06:55;;;;;;;98.07;65.30;;;;;;;7.06;58.50;102673.72;5011804;28;20381;-73
2023/01/01 01:09:21;;;;;;;86.63;61.43;;;;;;;6.99;58.72;102668.94;5012567;28;20390;-74
2023/01/01 01:11:46;;;;;;;85.63;58.53;;;;;;;6.99;58.96;102676.84;5012184;28;20411;-73
2023/01/01 01:14:13;;;;;;;87.10;58.80;;;;;;;7.05;58.84;102673.81;5012023;28;20416;-73
2023/01/01 01:16:39;;;;;;;74.43;52.17;;;;;;;7.09;58.08;102656.84;5012139;28;20396;-73
2023/01/01 01:19:05;;;;;;;75.07;52.92;;;;;;;7.18;58.32;102658.88;5012284;28;20936;-73
2023/01/01 01:21:33;;;;;;;73.22;50.88;;;;;;;7.27;58.15;102666.22;5012082;28;20463;-74
2023/01/01 01:24:00;;;;;;;81.07;53.10;;;;;;;7.32;57.54;102652.69;5012056;28;20379;-73
2023/01/01 01:26:28;;;;;;;80.82;54.45;;;;;;;7.40;57.73;102657.47;5012090;28;20364;-72
2023/01/01 01:28:53;;;;;;;88.10;58.00;;;;;;;7.40;57.63;102660.97;5011885;28;20383;-75
2023/01/01 01:31:20;;;;;;;91.27;61.60;;;;;;;7.38;57.94;102662.88;5010769;28;20380;-74
2023/01/01 01:33:47;;;;;;;101.73;64.70;;;;;;;7.43;57.96;102657.28;5011341;28;20466;-73
2023/01/01 01:36:14;;;;;;;104.03;65.93;;;;;;;7.49;57.92;102659.53;5011790;28;20396;-73
2023/01/01 01:38:40;;;;;;;116.93;72.88;;;;;;;7.52;57.78;102642.63;5010937;28;20379;-73
2023/01/01 01:41:06;;;;;;;103.28;69.55;;;;;;;7.54;57.87;102640.72;5012033;28;20372;-73
2023/01/01 01:43:31;;;;;;;112.63;73.70;;;;;;;7.55;57.57;102645.06;5011718;28;20372;-73
2023/01/01 01:46:08;;;;;;;125.33;81.03;;;;;;;7.44;57.89;102632.59;5011945;28;20383;-73
2023/01/01 01:48:38;;;;;;;122.13;78.40;;;;;;;7.37;57.82;102623.38;5011948;28;20372;-73
2023/01/01 01:51:04;;;;;;;134.23;87.63;;;;;;;7.41;57.80;102622.22;5011438;28;20377;-74
2023/01/01 01:53:34;;;;;;;151.80;95.57;;;;;;;7.46;57.60;102623.63;5011813;28;20376;-73
2023/01/01 01:56:04;;;;;;;147.13;92.53;;;;;;;7.51;57.00;102617.16;5011479;28;20894;-74
2023/01/01 01:58:31;;;;;;;127.72;84.32;;;;;;;7.49;57.15;102601.47;5011551;28;20386;-74
2023/01/01 02:00:57;;;;;;;125.57;85.15;;;;;;;7.53;57.37;102602.94;5011536;28;20376;-74
2023/01/01 02:03:29;;;;;;;125.93;83.33;;;;;;;7.39;57.57;102605.66;5011476;28;20479;-74
2023/01/01 02:05:56;;;;;;;131.43;85.70;;;;;;;7.34;57.76;102589.28;5011562;28;20368;-74
2023/01/01 02:08:22;;;;;;;127.13;83.28;;;;;;;7.44;57.75;102596.50;5011273;28;20387;-73
2023/01/01 02:10:47;;;;;;;119.53;78.77;;;;;;;7.49;57.43;102587.41;5011469;28;20570;-73
2023/01/01 02:13:13;;;;;;;114.13;77.20;;;;;;;7.43;57.45;102588.66;5011756;28;20459;-74
2023/01/01 02:15:48;;;;;;;113.80;79.13;;;;;;;7.46;57.52;102591.13;5011676;28;20880;-73
2023/01/01 02:18:19;;;;;;;118.03;78.65;;;;;;;7.40;57.55;102584.47;5013187;28;20395;-73
2023/01/01 02:20:54;;;;;;;119.68;81.50;;;;;;;7.49;57.63;102582.13;5016199;28;20383;-74
2023/01/01 02:23:46;;;;;;;115.43;81.38;;;;;;;7.45;57.54;102573.56;5015567;28;20372;-73
2023/01/01 02:26:22;;;;;;;126.68;83.82;;;;;;;7.51;57.73;102578.47;5009456;28;20449;-73
2023/01/01 02:29:03;;;;;;;130.15;86.70;;;;;;;7.57;57.27;102577.19;5016187;28;20373;-74
2023/01/01 02:31:34;;;;;;;146.82;93.90;;;;;;;7.61;57.38;102576.84;5011245;28;20379;-74
2023/01/01 02:34:04;;;;;;;155.40;99.15;;;;;;;7.64;57.17;102579.31;5009767;28;20376;-73
2023/01/01 02:36:33;;;;;;;133.45;86.97;;;;;;;7.64;57.19;102573.19;5011414;28;20395;-73
2023/01/01 02:39:01;;;;;;;123.13;83.18;;;;;;;7.59;57.40;102578.75;5015261;28;20449;-74
2023/01/01 02:41:35;;;;;;;115.03;77.75;;;;;;;7.53;57.35;102584.47;5011105;28;20383;-74
2023/01/01 02:44:02;;;;;;;99.63;67.75;;;;;;;7.47;57.66;102575.19;5009947;28;20474;-73
2023/01/01 02:46:32;;;;;;;80.88;58.42;;;;;;;7.55;57.19;102571.19;5010646;28;20364;-74
2023/01/01 02:48:58;;;;;;;93.63;61.87;;;;;;;7.57;57.23;102570.09;5000532;28;20371;-74
2023/01/01 02:51:45;;;;;;;93.27;61.83;;;;;;;7.60;57.30;102554.06;5013736;28;20391;-74
2023/01/01 02:54:17;;;;;;;96.22;65.65;;;;;;;7.59;57.23;102547.09;5013959;28;20467;-73
2023/01/01 02:56:52;;;;;;;95.88;67.28;;;;;;;7.59;57.46;102559.44;5014831;28;20391;-74
2023/01/01 03:00:18;;;;;;;102.90;70.03;;;;;;;7.57;57.30;102556.06;5013784;28;20790;-74
2023/01/01 03:03:08;;;;;;;98.72;68.28;;;;;;;7.49;57.22;102553.97;4993144;28;20365;-73
2023/01/01 03:09:23;;;;;;;120.53;83.22;;;;;;;7.48;57.16;102557.53;5014850;28;20391;-73
2023/01/01 03:12:10;;;;;;;113.47;85.93;;;;;;;7.44;56.94;102543.72;5002665;28;20468;-74
2023/01/01 03:14:38;;;;;;;114.67;96.03;;;;;;;7.46;57.16;102546.25;5013428;28;20798;-74
2023/01/01 03:17:28;;;;;;;118.57;97.53;;;;;;;7.34;57.54;102542.63;5014062;28;20819;-74
2023/01/01 03:19:56;;;;;;;102.50;80.07;;;;;;;7.41;57.44;102549.19;5014376;28;20867;-74
2023/01/01 03:22:30;;;;;;;102.05;73.72;;;;;;;7.38;57.20;102545.91;5014350;28;20384;-74
2023/01/01 03:25:00;;;;;;;122.78;109.00;;;;;;;7.35;57.30;102543.50;5014024;28;20380;-73
2023/01/01 03:27:42;;;;;;;131.17;117.07;;;;;;;7.42;57.37;102555.34;5013993;28;20442;-74
2023/01/01 03:30:10;;;;;;;94.43;73.00;;;;;;;7.36;57.38;102546.00;5013398;28;20469;-74
2023/01/01 03:33:07;;;;;;;88.67;67.30;;;;;;;7.33;57.12;102546.25;5013250;28;20387;-74
2023/01/01 03:36:02;;;;;;;75.13;55.30;;;;;;;7.38;57.43;102564.38;5008632;28;20388;-72
2023/01/01 03:38:35;;;;;;;79.43;56.95;;;;;;;7.31;57.44;102560.47;5013938;28;20379;-73
2023/01/01 03:41:11;;;;;;;72.38;53.38;;;;;;;7.29;57.55;102563.19;5013292;28;20376;-74
2023/01/01 03:44:01;;;;;;;65.65;47.13;;;;;;;7.30;57.55;102556.16;5013791;28;20384;-73
2023/01/01 03:46:31;;;;;;;55.83;43.33;;;;;;;7.44;57.29;102551.63;5013679;28;20371;-73
2023/01/01 03:48:59;;;;;;;74.20;50.00;;;;;;;7.32;57.43;102557.72;5014173;28;20372;-74
2023/01/01 03:51:24;;;;;;;88.68;63.03;;;;;;;6.86;58.90;102568.69;5013983;28;20390;-74
2023/01/01 03:53:54;;;;;;;98.50;67.60;;;;;;;6.28;59.77;102581.16;5013899;28;20368;-74
2023/01/01 03:56:24;;;;;;;87.15;62.50;;;;;;;6.21;60.30;102580.72;5013753;28;20407;-75
2023/01/01 03:59:15;;;;;;;90.40;61.85;;;;;;;6.31;59.96;102589.72;5012637;28;20439;-75
2023/01/01 04:01:48;;;;;;;89.33;60.10;;;;;;;6.21;60.35;102593.88;5013239;28;20847;-74
2023/01/01 04:04:15;;;;;;;77.38;53.97;;;;;;;6.04;60.41;102586.16;5013551;28;20380;-74
2023/01/01 04:06:41;;;;;;;69.97;50.22;;;;;;;6.06;60.82;102603.53;5007199;28;20866;-75
2023/01/01 04:09:13;;;;;;;68.18;47.70;;;;;;;6.07;60.63;102594.72;5000131;28;20388;-74
2023/01/01 04:12:03;;;;;;;64.50;44.70;;;;;;;6.18;60.87;102603.75;4993778;28;20465;-74
2023/01/01 04:14:54;;;;;;;69.50;49.08;;;;;;;6.30;59.89;102595.94;4993446;28;20420;-74
2023/01/01 04:17:20;;;;;;;68.78;48.28;;;;;;;6.16;60.23;102595.94;4992489;28;20413;-74
2023/01/01 04:19:45;;;;;;;61.10;43.40;;;;;;;6.11;60.64;102608.53;4993693;28;20378;-74
2023/01/01 04:22:11;;;;;;;57.53;40.90;;;;;;;6.04;60.84;102608.06;4992851;28;20385;-74
2023/01/01 04:24:36;;;;;;;56.43;42.23;;;;;;;6.08;60.62;102614.81;4995513;28;20378;-73
2023/01/01 04:27:02;;;;;;;61.03;42.47;;;;;;;6.08;60.43;102620.09;4998613;28;20858;-73
2023/01/01 04:29:27;;;;;;;61.30;44.33;;;;;;;5.99;60.68;102622.44;5008137;28;20387;-73
2023/01/01 04:31:53;;;;;;;57.72;41.28;;;;;;;6.08;60.60;102630.63;5013187;28;20383;-73
2023/01/01 04:34:18;;;;;;;59.93;42.47;;;;;;;6.07;60.56;102630.75;5013093;28;20709;-73
2023/01/01 04:36:44;;;;;;;62.30;42.17;;;;;;;6.07;60.84;102634.22;5012735;28;20396;-73
2023/01/01 04:39:09;;;;;;;64.15;44.85;;;;;;;6.00;60.31;102639.94;5012997;28;20380;-73
2023/01/01 04:41:35;;;;;;;61.72;43.88;;;;;;;5.98;60.41;102645.31;5012953;28;20451;-73
2023/01/01 04:44:00;;;;;;;63.17;44.13;;;;;;;6.07;60.41;102646.53;5012495;28;20860;-73
2023/01/01 04:46:26;;;;;;;57.37;41.23;;;;;;;6.09;59.97;102649.91;5012769;28;20904;-73
2023/01/01 04:48:51;;;;;;;58.50;41.13;;;;;;;6.02;59.85;102641.53;5012735;28;20380;-74
2023/01/01 04:51:19;;;;;;;53.83;38.60;;;;;;;6.01;60.45;102636.34;5013033;28;20368;-74
2023/01/01 04:53:45;;;;;;;49.35;35.92;;;;;;;6.09;59.86;102634.13;5012664;28;20388;-74
2023/01/01 04:56:13;;;;;;;47.42;35.15;;;;;;;6.18;59.78;102630.09;5012731;28;20415;-74
2023/01/01 04:58:40;;;;;;;47.57;34.80;;;;;;;6.24;59.33;102637.59;5012358;28;20384;-74
2023/01/01 05:01:08;;;;;;;46.20;34.28;;;;;;;6.21;59.35;102636.00;5012269;28;20380;-73
2023/01/01 05:03:33;;;;;;;47.42;34.88;;;;;;;6.22;59.21;102639.47;5011507;28;20464;-74
2023/01/01 05:06:08;;;;;;;45.50;32.87;;;;;;;6.26;59.26;102633.91;5012448;28;20502;-73
2023/01/01 05:08:35;;;;;;;46.13;33.83;;;;;;;6.27;59.78;102634.78;5011600;28;20372;-74
2023/01/01 05:11:02;;;;;;;43.75;32.83;;;;;;;6.40;59.39;102635.69;5012033;28;20377;-74
2023/01/01 05:13:28;;;;;;;48.83;35.53;;;;;;;6.51;59.29;102629.75;5011690;28;20703;-74
2023/01/01 05:15:54;;;;;;;47.00;36.47;;;;;;;6.64;58.57;102632.47;5012057;28;20499;-74
2023/01/01 05:18:19;;;;;;;53.42;36.78;;;;;;;6.68;58.75;102634.81;5010898;28;20388;-74
2023/01/01 05:20:45;;;;;;;64.35;42.38;;;;;;;6.73;58.51;102634.53;5010446;28;20437;-74
2023/01/01 05:23:10;;;;;;;54.67;38.30;;;;;;;6.75;58.53;102632.63;5009337;28;20396;-74
2023/01/01 05:25:36;;;;;;;46.17;34.33;;;;;;;6.81;58.85;102636.69;5011889;28;20383;-75
2023/01/01 05:28:01;;;;;;;71.57;63.10;;;;;;;6.87;58.76;102642.41;5011237;28;20380;-75
2023/01/01 05:30:27;;;;;;;67.40;58.25;;;;;;;6.94;58.39;102645.50;5011472;28;20404;-73
2023/01/01 05:32:52;;;;;;;52.67;40.00;;;;;;;6.93;58.29;102642.94;5010597;28;20883;-74
2023/01/01 05:35:18;;;;;;;52.37;37.13;;;;;;;6.92;58.40;102646.56;5011322;28;20936;-74
2023/01/01 05:37:43;;;;;;;52.23;36.43;;;;;;;6.90;58.21;102636.09;5011679;28;20853;-73
2023/01/01 05:40:09;;;;;;;55.67;41.53;;;;;;;6.94;58.21;102639.38;5011705;28;20983;-73
2023/01/01 05:42:35;;;;;;;62.33;45.13;;;;;;;7.02;57.79;102630.03;5011421;28;20892;-72
2023/01/01 05:45:01;;;;;;;53.67;40.23;;;;;;;7.08;57.82;102645.44;5011668;28;20458;-73
2023/01/01 05:47:27;;;;;;;57.55;41.53;;;;;;;7.06;57.68;102636.78;5011795;28;20840;-73
2023/01/01 05:49:53;;;;;;;60.47;42.42;;;;;;;6.90;57.84;102641.38;5011491;28;20442;-73
2023/01/01 05:52:18;;;;;;;58.57;42.83;;;;;;;6.70;58.01;102629.47;5011912;28;20372;-73
2023/01/01 05:54:44;;;;;;;57.58;42.05;;;;;;;6.69;58.09;102638.31;5011144;28;20384;-73
2023/01/01 05:57:09;;;;;;;58.50;41.20;;;;;;;6.77;57.84;102637.81;5016163;28;20392;-73
2023/01/01 05:59:35;;;;;;;58.77;42.63;;;;;;;6.79;57.95;102623.59;5011622;28;20811;-73
2023/01/01 06:02:00;;;;;;;63.90;43.35;;;;;;;6.75;57.71;102619.44;5010315;28;20449;-72
2023/01/01 06:04:25;;;;;;;63.50;43.77;;;;;;;6.64;58.20;102616.66;5011433;28;20394;-72
2023/01/01 06:06:51;;;;;;;59.53;41.93;;;;;;;6.59;58.07;102616.09;5010917;28;20470;-73
2023/01/01 06:09:16;;;;;;;59.88;40.97;;;;;;;6.61;58.27;102622.97;5010665;28;20412;-73
2023/01/01 06:11:42;;;;;;;60.67;42.27;;;;;;;6.62;58.17;102629.94;5010783;28;20376;-73
2023/01/01 06:14:07;;;;;;;60.67;41.03;;;;;;;6.63;58.08;102636.91;5015496;28;20418;-73
2023/01/01 06:16:33;;;;;;;60.30;41.95;;;;;;;6.67;58.35;102648.94;5011143;28;20808;-73
2023/01/01 06:18:58;;;;;;;58.20;41.15;;;;;;;6.65;58.33;102650.00;5011304;28;20841;-73
2023/01/01 06:21:26;;;;;;;57.23;39.43;;;;;;;6.67;58.01;102656.00;5010605;28;20892;-74
2023/01/01 06:23:53;;;;;;;54.33;38.13;;;;;;;6.64;58.18;102654.38;5011027;28;20384;-74
2023/01/01 06:26:21;;;;;;;53.30;38.22;;;;;;;6.65;58.22;102661.38;5010084;28;20415;-73
2023/01/01 06:28:47;;;;;;;53.65;39.28;;;;;;;6.67;58.25;102664.75;5011010;28;20388;-73
2023/01/01 06:31:15;;;;;;;57.47;41.67;;;;;;;6.69;58.43;102670.75;5011070;28;20383;-73
2023/01/01 06:33:41;;;;;;;54.30;39.33;;;;;;;6.63;58.70;102655.34;5011389;28;20717;-74
2023/01/01 06:36:09;;;;;;;52.73;40.07;;;;;;;6.60;58.78;102660.81;5010322;28;20975;-73
2023/01/01 06:38:38;;;;;;;56.67;40.22;;;;;;;6.62;58.83;102664.19;5010975;28;20411;-74
2023/01/01 06:41:06;;;;;;;57.95;38.55;;;;;;;6.67;59.13;102664.75;5009289;28;20385;-72
2023/01/01 06:43:33;;;;;;;54.80;40.13;;;;;;;6.70;59.11;102661.94;5010573;28;20388;-72
2023/01/01 06:46:07;;;;;;;52.55;38.33;;;;;;;6.77;58.89;102664.16;5007164;28;20732;-73
2023/01/01 06:48:35;;;;;;;53.63;37.42;;;;;;;6.92;58.97;102665.00;5010879;28;20379;-73
2023/01/01 06:51:06;;;;;;;54.53;38.55;;;;;;;6.93;58.75;102664.03;5010493;28;20876;-73
2023/01/01 06:53:32;;;;;;;56.70;40.05;;;;;;;6.96;58.93;102663.84;5010046;28;20884;-73
2023/01/01 06:55:57;;;;;;;52.10;38.22;;;;;;;6.79;59.24;102668.41;5010303;28;20420;-73
2023/01/01 06:58:23;;;;;;;62.88;41.88;;;;;;;6.57;59.96;102668.06;5010382;28;20450;-73
2023/01/01 07:00:48;;;;;;;51.93;38.47;;;;;;;6.50;60.04;102673.72;5010418;28;20388;-73
2023/01/01 07:03:14;;;;;;;52.90;38.37;;;;;;;6.53;60.71;102672.66;5010065;28;20492;-73
2023/01/01 07:05:39;;;;;;;53.97;38.33;;;;;;;6.60;60.67;102673.97;5009738;28;20463;-74
2023/01/01 07:08:05;;;;;;;52.50;38.93;;;;;;;6.73;60.15;102675.84;5009830;28;20829;-73
2023/01/01 07:10:30;;;;;;;50.90;37.07;;;;;;;6.78;60.30;102677.25;5010598;28;20895;-74
2023/01/01 07:12:55;;;;;;;54.87;37.50;;;;;;;6.92;60.17;102676.38;5010515;28;20388;-73
2023/01/01 07:15:21;;;;;;;52.43;38.10;;;;;;;6.92;60.04;102673.75;5010514;28;20565;-74
2023/01/01 07:17:46;;;;;;;57.60;39.65;;;;;;;6.83;60.33;102680.44;5016688;28;20408;-74
2023/01/01 07:20:12;;;;;;;54.97;39.78;;;;;;;6.86;60.27;102682.03;5016572;28;20415;-74
2023/01/01 07:22:39;;;;;;;55.30;39.00;;;;;;;7.03;60.15;102686.25;5017191;28;20388;-74
2023/01/01 07:25:06;;;;;;;53.92;39.38;;;;;;;7.05;59.99;102679.91;5017451;28;20384;-75
2023/01/01 07:27:32;;;;;;;53.40;38.30;;;;;;;7.16;59.78;102684.50;5039003;28;20400;-73
2023/01/01 07:29:57;;;;;;;53.10;39.25;;;;;;;7.20;59.48;102678.09;5010151;28;20785;-73
2023/01/01 07:32:23;;;;;;;59.30;40.73;;;;;;;7.31;59.53;102685.31;5009670;28;20391;-74
2023/01/01 07:34:48;;;;;;;58.60;41.93;;;;;;;7.40;59.41;102679.44;5013728;28;20388;-74
2023/01/01 07:37:13;;;;;;;58.50;43.45;;;;;;;7.46;59.13;102684.31;5013946;28;20502;-75
2023/01/01 07:39:39;;;;;;;56.90;42.57;;;;;;;7.50;59.20;102676.19;5012991;28;20390;-74
2023/01/01 07:42:04;;;;;;;58.07;42.00;;;;;;;7.57;58.92;102688.03;5012781;28;20392;-75
2023/01/01 07:44:30;;;;;;;58.08;41.28;;;;;;;7.62;58.92;102684.13;5016644;28;20376;-73
2023/01/01 07:47:17;;;;;;;55.20;40.47;;;;;;;7.69;58.71;102691.63;5017225;28;20457;-74
2023/01/01 07:49:43;;;;;;;55.90;38.90;;;;;;;7.80;58.75;102678.59;5013163;28;20395;-74
2023/01/01 07:52:08;;;;;;;54.50;39.55;;;;;;;7.94;58.05;102683.78;5013065;28;20388;-75
2023/01/01 07:54:34;;;;;;;50.23;37.57;;;;;;;7.92;57.84;102682.19;5013919;28;20441;-74
2023/01/01 07:56:59;;;;;;;57.47;40.70;;;;;;;7.92;58.15;102688.28;5013464;28;20461;-74
2023/01/01 07:59:24;;;;;;;58.93;42.10;;;;;;;7.98;58.06;102679.13;5013082;28;20758;-75
2023/01/01 08:01:50;;;;;;;63.00;43.10;;;;;;;8.13;57.82;102690.44;5014478;28;20380;-74
2023/01/01 08:04:15;;;;;;;63.78;43.75;;;;;;;8.28;57.75;102693.81;5017087;28;20392;-74
2023/01/01 08:06:41;;;;;;;62.97;42.37;;;;;;;8.36;57.82;102697.63;5013211;28;20376;-74
2023/01/01 08:09:06;;;;;;;59.93;42.10;;;;;;;8.42;57.32;102691.94;5013257;28;20383;-74
2023/01/01 08:11:32;;;;;;;62.77;43.33;;;;;;;8.46;57.91;102697.00;5013113;28;20441;-74
2023/01/01 08:13:57;;;;;;;67.83;47.57;;;;;;;8.48;58.25;102698.63;5013116;28;20495;-74
2023/01/01 08:16:22;;;;;;;64.78;45.17;;;;;;;8.61;57.77;102701.22;5013025;28;20407;-74
2023/01/01 08:18:48;;;;;;;81.37;54.90;;;;;;;8.68;57.61;102702.50;5013297;28;20449;-74
2023/01/01 08:21:13;;;;;;;68.00;47.10;;;;;;;8.78;57.79;102710.59;5012735;28;20534;-74
2023/01/01 08:23:39;;;;;;;71.68;49.45;;;;;;;8.83;57.83;102697.91;5013138;28;20388;-73
2023/01/01 08:26:04;;;;;;;72.80;50.30;;;;;;;8.88;57.50;102700.22;5012549;28;20388;-74
2023/01/01 08:28:30;;;;;;;83.20;53.40;;;;;;;8.96;57.75;102703.16;5012935;28;20388;-74
2023/01/01 08:30:56;;;;;;;79.95;52.42;;;;;;;9.03;57.88;102700.91;5012783;28;20388;-74
2023/01/01 08:33:22;;;;;;;75.72;50.40;;;;;;;9.13;57.43;102708.09;5012520;28;20391;-74
2023/01/01 08:35:48;;;;;;;90.38;53.63;;;;;;;9.21;57.66;102696.94;5012522;28;20845;-74
2023/01/01 08:38:13;;;;;;;75.88;47.70;;;;;;;9.32;57.09;102685.56;5012435;28;20817;-73
2023/01/01 08:40:39;;;;;;;66.95;46.63;;;;;;;9.43;57.44;102692.72;5012082;28;20482;-74
2023/01/01 08:43:05;;;;;;;74.82;48.53;;;;;;;9.52;57.09;102708.75;5012220;28;20760;-74
2023/01/01 08:45:30;;;;;;;61.67;44.73;;;;;;;9.51;57.31;102696.47;5011059;28;20387;-75
2023/01/01 08:47:56;;;;;;;83.97;53.20;;;;;;;9.53;57.23;102701.66;5011418;28;20412;-74
2023/01/01 08:50:21;;;;;;;76.65;51.92;;;;;;;9.54;57.04;102693.63;5010844;28;20768;-74
2023/01/01 08:52:46;;;;;;;68.40;48.20;;;;;;;9.51;57.05;102685.88;5011761;28;20404;-74
2023/01/01 08:55:12;;;;;;;67.67;47.87;;;;;;;9.63;57.04;102692.06;5010697;28;20951;-74
2023/01/01 08:57:37;;;;;;;61.87;44.93;;;;;;;9.70;56.85;102700.38;5011187;28;20491;-74
2023/01/01 09:00:08;;;;;;;53.50;36.00;;;;;;;9.63;56.38;102701.81;5009515;28;21291;-74
2023/01/01 09:02:34;;;;;;;50.15;34.10;;;;;;;9.57;56.76;102703.94;5008565;28;20392;-74
2023/01/01 09:04:59;;;;;;;42.95;30.25;;;;;;;9.47;56.72;102700.31;5009560;28;20740;-75
2023/01/01 09:07:24;;;;;;;38.23;26.97;;;;;;;9.38;56.60;102691.25;5010043;28;20432;-75
2023/01/01 09:09:50;;;;;;;38.67;28.87;;;;;;;9.60;56.58;102689.66;5010146;28;20490;-73
2023/01/01 09:12:16;;;;;;;49.43;36.43;;;;;;;9.66;56.22;102685.69;5010062;28;20804;-74
2023/01/01 09:14:41;;;;;;;53.53;38.20;;;;;;;9.67;57.00;102677.66;5010014;28;20752;-73
2023/01/01 09:17:07;;;;;;;57.00;39.95;;;;;;;9.84;56.26;102676.34;5010087;28;20420;-74
2023/01/01 09:19:32;;;;;;;56.58;40.95;;;;;;;10.02;55.98;102679.41;5009974;28;20791;-74
2023/01/01 09:21:58;;;;;;;53.67;38.83;;;;;;;10.12;56.09;102680.38;5009955;28;20392;-75
2023/01/01 09:24:23;;;;;;;50.47;36.83;;;;;;;10.20;56.13;102685.09;5009741;28;20415;-74
2023/01/01 09:26:49;;;;;;;48.53;36.03;;;;;;;10.27;56.05;102675.69;5009091;28;20388;-74
2023/01/01 09:29:17;;;;;;;44.78;32.05;;;;;;;10.43;56.13;102675.38;5009914;28;20857;-74
2023/01/01 09:31:43;;;;;;;39.00;28.25;;;;;;;10.57;55.90;102674.28;5009162;28;21077;-74
2023/01/01 09:34:09;;;;;;;39.58;28.70;;;;;;;10.68;55.63;102676.09;5010008;28;20407;-74
2023/01/01 09:36:35;;;;;;;34.07;25.70;;;;;;;10.75;55.75;102671.13;5011161;28;20443;-75
2023/01/01 09:39:01;;;;;;;29.55;22.40;;;;;;;10.73;55.71;102668.59;5014431;28;20483;-74
2023/01/01 09:41:48;;;;;;;29.75;22.40;;;;;;;10.86;55.92;102671.13;5009676;28;20756;-74
2023/01/01 09:44:37;;;;;;;54.22;39.28;;;;;;;10.97;55.70;102671.09;5009561;28;20392;-74
2023/01/01 09:47:12;;;;;;;30.53;21.90;;;;;;;11.05;55.65;102678.41;5008089;28;20396;-74
2023/01/01 09:49:45;;;;;;;32.75;23.50;;;;;;;11.12;55.35;102662.84;5009558;28;20396;-74
2023/01/01 09:52:13;;;;;;;25.85;18.75;;;;;;;11.20;55.57;102655.94;5009756;28;20399;-73
2023/01/01 09:55:02;;;;;;;27.48;20.33;;;;;;;11.25;55.40;102661.72;5011113;28;20899;-74
2023/01/01 09:57:29;;;;;;;26.88;20.70;;;;;;;11.38;55.01;102658.91;5012502;28;20412;-74
2023/01/01 09:59:57;;;;;;;31.42;22.25;;;;;;;11.46;54.89;102655.59;5014482;28;20450;-74
2023/01/01 10:02:47;;;;;;;26.42;20.77;;;;;;;11.56;54.71;102653.84;5013969;28;20399;-73
2023/01/01 10:05:12;;;;;;;27.50;21.60;;;;;;;11.64;54.88;102654.03;5011312;28;20390;-73
2023/01/01 10:07:38;;;;;;;29.67;22.97;;;;;;;11.77;54.56;102643.22;5017450;28;20419;-74
2023/01/01 10:10:34;;;;;;;26.97;19.43;;;;;;;11.92;54.36;102642.91;5010688;28;20392;-74
2023/01/01 10:13:24;;;;;;;29.35;20.42;;;;;;;12.00;54.23;102637.78;5009894;28;20384;-75
2023/01/01 10:15:58;;;;;;;27.48;19.98;;;;;;;12.02;53.93;102630.53;5010980;28;21080;-75
2023/01/01 10:18:34;;;;;;;25.65;20.20;;;;;;;11.98;53.82;102623.78;5014796;28;20830;-74
2023/01/01 10:21:10;;;;;;;26.05;19.73;;;;;;;12.10;53.69;102622.75;5010671;28;20396;-74
2023/01/01 10:23:43;;;;;;;27.42;20.40;;;;;;;12.16;53.62;102621.38;5008602;28;20383;-74
2023/01/01 10:26:14;;;;;;;25.00;19.45;;;;;;;12.27;53.40;102628.41;5011042;28;20384;-75
2023/01/01 10:28:52;;;;;;;26.48;19.45;;;;;;;12.33;53.40;102622.53;5011661;28;20386;-74
2023/01/01 10:31:40;;;;;;;25.77;18.10;;;;;;;12.43;53.24;102615.44;5010890;28;20388;-73
2023/01/01 10:34:18;;;;;;;24.98;19.00;;;;;;;12.59;52.94;102612.25;5015329;28;20450;-74
2023/01/01 10:36:43;;;;;;;25.33;19.40;;;;;;;12.65;53.19;102605.56;5009199;28;20395;-74
2023/01/01 10:39:15;;;;;;;27.13;18.95;;;;;;;12.73;53.23;102605.69;5010016;28;20475;-74
2023/01/01 10:41:42;;;;;;;23.13;18.20;;;;;;;12.74;52.89;102592.25;5009398;28;20384;-73
2023/01/01 10:44:10;;;;;;;22.70;16.10;;;;;;;12.80;52.78;102591.72;5011336;28;20926;-73
2023/01/01 10:46:42;;;;;;;22.02;16.75;;;;;;;12.85;52.93;102596.59;5009513;28;20384;-74
2023/01/01 10:49:10;;;;;;;22.10;15.43;;;;;;;12.97;52.90;102594.66;5008212;28;20395;-76
2023/01/01 10:51:58;;;;;;;21.47;15.33;;;;;;;13.06;52.71;102588.50;5009317;28;20385;-73
2023/01/01 10:54:39;;;;;;;21.75;16.63;;;;;;;13.12;52.79;102579.94;5008834;28;20384;-74
2023/01/01 10:57:19;;;;;;;20.98;14.07;;;;;;;13.22;52.42;102573.75;5009984;28;20400;-74
2023/01/01 10:59:45;;;;;;;19.60;13.90;;;;;;;13.26;52.40;102570.69;5003385;28;20962;-74
2023/01/01 11:02:18;;;;;;;24.17;14.07;;;;;;;13.37;52.55;102578.53;5009393;28;20480;-75
2023/01/01 11:04:44;;;;;;;18.67;14.77;;;;;;;13.42;52.38;102567.47;5009948;28;20395;-75
2023/01/01 11:07:19;;;;;;;19.58;12.70;;;;;;;13.48;52.18;102563.38;5010596;28;20390;-74
2023/01/01 11:09:48;;;;;;;16.50;13.32;;;;;;;13.56;52.43;102568.84;5014174;28;20384;-74
2023/01/01 11:12:20;;;;;;;16.40;10.93;;;;;;;13.56;51.58;102564.34;5012653;28;20392;-74
2023/01/01 11:14:58;;;;;;;13.63;10.52;;;;;;;13.61;51.33;102563.06;5013145;28;20400;-73
2023/01/01 11:17:33;;;;;;;13.60;10.45;;;;;;;13.66;51.79;102555.50;5011271;28;20411;-74
2023/01/01 11:20:01;;;;;;;16.17;12.02;;;;;;;13.74;51.62;102556.44;5010436;28;20407;-76
2023/01/01 11:22:52;;;;;;;25.40;19.63;;;;;;;13.71;52.08;102547.91;5012783;28;20384;-74
2023/01/01 11:25:21;;;;;;;16.23;10.70;;;;;;;13.81;51.52;102546.06;5004350;28;20452;-74
2023/01/01 11:27:48;;;;;;;17.80;13.25;;;;;;;13.85;52.08;102543.94;5008240;28;20422;-74